createdAt,value
2022-10-08T00:00:12.168Z,32.64603
2022-10-08T00:05:13.071Z,32.66892
2022-10-08T00:10:14.004Z,32.66791
2022-10-08T00:15:14.923Z,32.68475
2022-10-08T00:20:15.844Z,32.7142
2022-10-08T00:25:16.767Z,32.85049
2022-10-08T00:30:17.884Z,32.93822
2022-10-08T00:35:18.927Z,32.96215
2022-10-08T00:40:19.854Z,33.03312
2022-10-08T00:45:20.987Z,33.06221
2022-10-08T00:50:21.940Z,33.17491
2022-10-08T00:55:22.929Z,33.25158
2022-10-08T01:00:24.123Z,33.2923
2022-10-08T01:05:25.077Z,33.3399
2022-10-08T01:10:26.006Z,33.46356
2022-10-08T01:15:27.028Z,33.47448
2022-10-08T01:20:27.989Z,33.60356
2022-10-08T01:25:28.937Z,33.63252
2022-10-08T01:30:30.074Z,33.71444
2022-10-08T01:35:30.998Z,33.7841
2022-10-08T01:40:32.013Z,33.88416
2022-10-08T01:45:32.932Z,33.97774
2022-10-08T01:50:33.874Z,34.01867
2022-10-08T01:55:34.845Z,34.13077
2022-10-08T02:00:35.931Z,34.16115
2022-10-08T02:05:36.859Z,34.36118
2022-10-08T02:10:37.778Z,34.52583
2022-10-08T02:15:38.716Z,34.60204
2022-10-08T02:20:39.647Z,34.81404
2022-10-08T02:25:40.586Z,35.03696
2022-10-08T02:30:41.710Z,35.11132
2022-10-08T02:35:42.620Z,35.18723
2022-10-08T02:40:43.678Z,35.32274
2022-10-08T02:45:44.826Z,35.48726
2022-10-08T02:50:45.788Z,35.60483
2022-10-08T02:55:46.750Z,35.716
2022-10-08T03:00:47.967Z,35.79788
2022-10-08T03:05:48.932Z,35.89754
2022-10-08T03:10:49.893Z,36.13304
2022-10-08T03:15:51.302Z,36.33875
2022-10-08T03:20:52.209Z,36.33834
2022-10-08T03:25:53.192Z,36.37926
2022-10-08T03:30:54.379Z,36.33165
2022-10-08T03:35:55.343Z,36.35498
2022-10-08T03:40:56.385Z,36.37847
2022-10-08T03:45:57.321Z,36.34895
2022-10-08T03:50:58.282Z,36.35443
2022-10-08T03:55:59.253Z,36.33036
2022-10-08T04:01:00.475Z,36.23037
2022-10-08T04:06:01.495Z,36.28941
2022-10-08T04:11:02.427Z,36.14811
2022-10-08T04:16:03.433Z,36.1719
2022-10-08T04:21:04.552Z,36.21885
2022-10-08T04:26:05.500Z,36.05482
2022-10-08T04:31:07.001Z,36.03203
2022-10-08T04:36:08.109Z,36.15024
2022-10-08T04:41:09.039Z,36.25621
2022-10-08T04:46:10.041Z,36.36778
2022-10-08T04:51:11.237Z,36.44403
2022-10-08T04:56:12.253Z,36.50269
2022-10-08T05:01:13.433Z,36.54956
2022-10-08T05:06:14.400Z,36.50818
2022-10-08T05:11:15.334Z,36.54407
2022-10-08T05:16:16.295Z,36.60355
2022-10-08T05:21:17.311Z,36.75676
2022-10-08T05:26:18.293Z,36.75113
2022-10-08T05:31:19.582Z,36.76324
2022-10-08T05:36:20.617Z,36.74043
2022-10-08T05:41:21.592Z,36.74055
2022-10-08T05:46:22.607Z,36.858
2022-10-08T05:51:23.612Z,36.88688
2022-10-08T05:56:24.633Z,36.85099
2022-10-08T06:01:25.756Z,36.74471
2022-10-08T06:06:26.711Z,36.81584
2022-10-08T06:11:27.631Z,36.84532
2022-10-08T06:16:28.712Z,36.91008
2022-10-08T06:21:29.726Z,37.02745
2022-10-08T06:26:35.418Z,37.02115
2022-10-08T06:31:37.390Z,37.0972
2022-10-08T06:36:38.387Z,37.0207
2022-10-08T06:41:39.340Z,37.06142
2022-10-08T06:46:40.371Z,37.10293
2022-10-08T06:51:41.427Z,37.15018
2022-10-08T06:56:42.551Z,36.9954
2022-10-08T07:01:43.795Z,36.85805
2022-10-08T07:06:44.836Z,36.92831
2022-10-08T07:11:45.795Z,37.17532
2022-10-08T07:16:47.225Z,37.26922
2022-10-08T07:21:48.226Z,36.84728
2022-10-08T07:26:49.185Z,36.52683
2022-10-08T07:31:50.411Z,36.08101
2022-10-08T07:36:51.327Z,35.7598
2022-10-08T07:41:52.264Z,35.87908
2022-10-08T07:46:53.223Z,35.95658
2022-10-08T07:51:54.276Z,35.96108
2022-10-08T07:56:55.235Z,35.01561
2022-10-08T08:01:56.411Z,31.67044
2022-10-08T08:06:57.474Z,33.54245
2022-10-08T08:11:58.374Z,30.94906
2022-10-08T08:16:59.449Z,30.3596
2022-10-08T08:22:00.542Z,29.91666
2022-10-08T08:27:01.625Z,25.43865
2022-10-08T08:32:02.847Z,24.53906
2022-10-08T08:37:03.889Z,16.7268
2022-10-08T08:42:04.850Z,19.81768
2022-10-08T08:47:05.823Z,23.24405
2022-10-08T08:52:06.785Z,24.74414
2022-10-08T08:57:08.190Z,24.51433
2022-10-08T09:02:09.597Z,21.63722
2022-10-08T09:07:10.522Z,23.54966
2022-10-08T09:12:11.472Z,20.11153
2022-10-08T09:17:12.451Z,18.52683
2022-10-08T09:22:13.455Z,18.24579
2022-10-08T09:27:14.415Z,17.25885
2022-10-08T09:32:15.549Z,17.21864
2022-10-08T09:37:16.465Z,17.92498
2022-10-08T09:42:17.411Z,19.88318
2022-10-08T09:47:18.365Z,21.27731
2022-10-08T09:52:20.795Z,21.14317
2022-10-08T09:57:22.741Z,20.65691
2022-10-08T10:02:23.878Z,21.26013
2022-10-08T10:07:24.852Z,22.15956
2022-10-08T10:12:25.744Z,23.05003
2022-10-08T10:17:26.669Z,23.74887
2022-10-08T10:22:27.662Z,24.26264
2022-10-08T10:27:28.625Z,24.75411
2022-10-08T10:32:32.061Z,25.17326
2022-10-08T10:37:33.430Z,25.47059
2022-10-08T10:42:34.373Z,25.3197
2022-10-08T10:47:35.332Z,25.49248
2022-10-08T10:52:36.417Z,25.89827
2022-10-08T10:57:37.373Z,26.40447
2022-10-08T11:02:38.564Z,26.71492
2022-10-08T11:07:39.570Z,27.21635
2022-10-08T11:12:40.486Z,27.51931
2022-10-08T11:17:41.439Z,27.90507
2022-10-08T11:22:42.365Z,28.2055
2022-10-08T11:27:43.319Z,28.12378
2022-10-08T11:32:44.509Z,28.13091
2022-10-08T11:37:45.465Z,28.27156
2022-10-08T11:42:48.941Z,28.30494
2022-10-08T11:47:50.254Z,28.67491
2022-10-08T11:52:51.187Z,28.90328
2022-10-08T11:58:07.134Z,29.53416
2022-10-08T12:03:09.623Z,30.50554
2022-10-08T12:08:10.593Z,31.11988
2022-10-08T12:13:16.772Z,31.20117
2022-10-08T12:18:21.335Z,31.28978
2022-10-08T12:23:25.990Z,31.35438
2022-10-08T12:28:26.975Z,31.24953
2022-10-08T12:33:28.159Z,31.13548
2022-10-08T12:38:29.093Z,31.08082
2022-10-08T12:43:30.052Z,30.88223
2022-10-08T12:48:31.062Z,30.57817
2022-10-08T12:53:32.078Z,30.49383
2022-10-08T12:58:33.033Z,30.15243
2022-10-08T13:03:34.217Z,30.10249
2022-10-08T13:08:35.176Z,29.97162
2022-10-08T13:13:36.226Z,29.73788
2022-10-08T13:18:37.236Z,29.59613
2022-10-08T13:23:38.266Z,29.26032
2022-10-08T13:28:59.139Z,28.24792
2022-10-08T13:34:00.841Z,28.1881
2022-10-08T13:39:02.184Z,28.02668
2022-10-08T13:44:03.196Z,28.11638
2022-10-08T13:49:04.185Z,27.7524
2022-10-08T13:54:05.122Z,27.28488
2022-10-08T13:59:06.052Z,27.07399
2022-10-08T14:04:07.141Z,27.13172
2022-10-08T14:09:08.297Z,26.9829
2022-10-08T14:14:09.636Z,26.51133
2022-10-08T14:19:12.344Z,26.38248
2022-10-08T14:24:13.589Z,26.04768
2022-10-08T14:29:14.677Z,25.79436
2022-10-08T14:34:15.856Z,25.80943
2022-10-08T14:39:16.970Z,25.85885
2022-10-08T14:44:17.945Z,25.91193
2022-10-08T14:49:18.878Z,25.88239
2022-10-08T14:54:19.877Z,26.03739
2022-10-08T14:59:20.834Z,26.22059
2022-10-08T15:04:21.971Z,26.91657
2022-10-08T15:09:22.910Z,27.79284
2022-10-08T15:14:23.853Z,28.69911
2022-10-08T15:19:24.796Z,29.23634
2022-10-08T15:24:25.722Z,29.83147
2022-10-08T15:29:26.648Z,30.39932
2022-10-08T15:34:27.852Z,30.39092
2022-10-08T15:39:33.412Z,30.53733
2022-10-08T15:44:36.613Z,30.65999
2022-10-08T15:49:37.574Z,30.77938
2022-10-08T15:54:38.496Z,30.77001
2022-10-08T15:59:39.430Z,30.31646
2022-10-08T16:04:40.619Z,30.19106
2022-10-08T16:09:41.553Z,30.10401
2022-10-08T16:14:42.495Z,30.2638
2022-10-08T16:19:43.475Z,30.13203
2022-10-08T16:24:44.429Z,30.24619
2022-10-08T16:29:45.343Z,30.41321
2022-10-08T16:34:50.080Z,30.43195
2022-10-08T16:39:53.622Z,30.56947
2022-10-08T16:44:54.556Z,30.65187
2022-10-08T16:49:55.482Z,30.5208
2022-10-08T16:54:56.433Z,30.80774
2022-10-08T16:59:57.386Z,31.04839
2022-10-08T17:04:58.581Z,31.23289
2022-10-08T17:09:59.559Z,31.40552
2022-10-08T17:15:00.530Z,31.59069
2022-10-08T17:20:01.488Z,31.82408
2022-10-08T17:25:02.428Z,32.06118
2022-10-08T17:30:03.450Z,32.0689
2022-10-08T17:35:04.698Z,32.07008
2022-10-08T17:40:05.657Z,32.10802
2022-10-08T17:45:06.678Z,32.16228
2022-10-08T17:50:07.648Z,32.25103
2022-10-08T17:55:08.972Z,32.35429
2022-10-08T18:00:10.198Z,32.54618
2022-10-08T18:05:11.368Z,32.73019
2022-10-08T18:10:12.287Z,32.86182
2022-10-08T18:15:13.205Z,32.97533
2022-10-08T18:20:14.146Z,33.18363
2022-10-08T18:25:15.125Z,33.46944
2022-10-08T18:30:16.056Z,33.71185
2022-10-08T18:35:17.225Z,33.71657
2022-10-08T18:40:18.147Z,33.8828
2022-10-08T18:45:19.066Z,34.06654
2022-10-08T18:50:20.022Z,34.15468
2022-10-08T18:55:20.958Z,34.23737
2022-10-08T19:00:21.942Z,34.29711
2022-10-08T19:05:23.086Z,34.46777
2022-10-08T19:10:23.999Z,34.47426
2022-10-08T19:15:24.981Z,34.57589
2022-10-08T19:20:25.882Z,34.69422
2022-10-08T19:25:26.857Z,34.7524
2022-10-08T19:30:32.589Z,34.63962
2022-10-08T19:35:33.970Z,34.6461
2022-10-08T19:40:34.882Z,34.67533
2022-10-08T19:45:35.837Z,34.6992
2022-10-08T19:50:36.738Z,34.75929
2022-10-08T19:55:37.677Z,34.94268
2022-10-08T20:00:38.905Z,34.93733
2022-10-08T20:05:40.072Z,34.96664
2022-10-08T20:10:41.203Z,34.95365
2022-10-08T20:15:42.239Z,34.84228
2022-10-08T20:20:43.221Z,34.81911
2022-10-08T20:25:44.117Z,34.79666
2022-10-08T20:30:45.169Z,34.97419
2022-10-08T20:35:46.327Z,34.92834
2022-10-08T20:40:47.295Z,35.06549
2022-10-08T20:45:48.292Z,35.17268
2022-10-08T20:50:49.218Z,35.23158
2022-10-08T20:55:50.168Z,35.14967
2022-10-08T21:00:51.184Z,35.17881
2022-10-08T21:05:52.343Z,35.0218
2022-10-08T21:10:53.270Z,35.26345
2022-10-08T21:15:54.426Z,35.38724
2022-10-08T21:20:55.383Z,35.29768
2022-10-08T21:25:56.343Z,35.2806
2022-10-08T21:31:00.641Z,35.16581
2022-10-08T21:36:05.013Z,34.71405
2022-10-08T21:41:06.325Z,34.63409
2022-10-08T21:46:07.277Z,34.92632
2022-10-08T21:51:08.287Z,35.11725
2022-10-08T21:56:09.354Z,35.25998
2022-10-08T22:01:10.851Z,35.4723
2022-10-08T22:06:12.061Z,35.41335
2022-10-08T22:11:13.077Z,35.43729
2022-10-08T22:16:14.103Z,35.5138
2022-10-08T22:21:15.058Z,35.50233
2022-10-08T22:26:16.001Z,35.53809
2022-10-08T22:31:17.041Z,35.48519
2022-10-08T22:36:18.252Z,35.50936
2022-10-08T22:41:19.186Z,35.53423
2022-10-08T22:46:20.121Z,35.7349
2022-10-08T22:51:21.054Z,35.7699
2022-10-08T22:56:22.059Z,35.78833
2022-10-08T23:01:23.012Z,35.78891
2022-10-08T23:06:24.139Z,35.78335
2022-10-08T23:11:25.068Z,35.89556
2022-10-08T23:16:26.073Z,35.97848
2022-10-08T23:21:28.017Z,36.06688
2022-10-08T23:26:28.971Z,36.1139
2022-10-08T23:31:29.976Z,36.16062
2022-10-08T23:36:31.222Z,36.17235
2022-10-08T23:41:32.199Z,36.11342
2022-10-08T23:46:33.195Z,36.1431
2022-10-08T23:51:34.163Z,36.20185
2022-10-08T23:56:35.124Z,36.27259
